Terminal Aerodrome Forecast
Issued by NWS

Home | Current Version | Previous Version | Text Only | Print | Product List | Glossary On
Versions: 1 2 3 4 5 6 7 8 9 10 11 12 13 14 15 16 17 18 19 20 21 22 23
825
FTUS44 KTSA 202320
TAFBVO
TAF
KBVO 202320Z 2100/2124 22012KT P6SM SCT250
     FM210100 26006KT P6SM SCT250
     FM211200 18008KT P6SM SCT100=

USA.gov is the U.S. government's official web portal to all federal, state and local government web resources and services.